sensor_id;sensor_type;location;lat;lon;timestamp;pressure;altitude;pressure_sealevel;temperature;humidity
15050;BME280;7622;42.724;23.250;2024-03-06T00:00:11;94364.75;;;5.18;100.00
15050;BME280;7622;42.724;23.250;2024-03-06T00:02:40;94335.75;;;4.94;100.00
15050;BME280;7622;42.724;23.250;2024-03-06T00:05:07;94362.53;;;5.25;100.00
15050;BME280;7622;42.724;23.250;2024-03-06T00:07:34;94363.91;;;5.29;100.00
15050;BME280;7622;42.724;23.250;2024-03-06T00:10:00;94367.16;;;5.42;100.00
15050;BME280;7622;42.724;23.250;2024-03-06T00:12:30;94369.03;;;5.40;100.00
15050;BME280;7622;42.724;23.250;2024-03-06T00:14:57;94360.84;;;5.35;100.00
15050;BME280;7622;42.724;23.250;2024-03-06T00:17:23;94369.16;;;5.49;100.00
15050;BME280;7622;42.724;23.250;2024-03-06T00:19:51;94369.97;;;5.50;100.00
15050;BME280;7622;42.724;23.250;2024-03-06T00:22:18;94363.69;;;5.32;100.00
15050;BME280;7622;42.724;23.250;2024-03-06T00:24:45;94369.50;;;5.56;100.00
15050;BME280;7622;42.724;23.250;2024-03-06T00:27:11;94357.38;;;5.25;100.00
15050;BME280;7622;42.724;23.250;2024-03-06T00:29:38;94365.44;;;5.31;100.00
15050;BME280;7622;42.724;23.250;2024-03-06T00:32:05;94366.69;;;5.48;100.00
15050;BME280;7622;42.724;23.250;2024-03-06T00:34:32;94360.81;;;5.57;100.00
15050;BME280;7622;42.724;23.250;2024-03-06T00:37:00;94366.50;;;5.29;100.00
15050;BME280;7622;42.724;23.250;2024-03-06T00:39:27;94362.75;;;5.22;100.00
15050;BME280;7622;42.724;23.250;2024-03-06T00:41:54;94363.81;;;5.08;100.00
15050;BME280;7622;42.724;23.250;2024-03-06T00:44:21;94365.09;;;5.25;100.00
15050;BME280;7622;42.724;23.250;2024-03-06T00:46:47;94365.66;;;5.28;100.00
15050;BME280;7622;42.724;23.250;2024-03-06T00:49:14;94362.72;;;5.33;100.00
15050;BME280;7622;42.724;23.250;2024-03-06T00:51:41;94361.19;;;5.41;100.00
15050;BME280;7622;42.724;23.250;2024-03-06T00:54:09;94355.06;;;5.53;100.00
15050;BME280;7622;42.724;23.250;2024-03-06T00:56:37;94359.69;;;5.28;100.00
15050;BME280;7622;42.724;23.250;2024-03-06T00:59:04;94359.97;;;5.25;100.00
15050;BME280;7622;42.724;23.250;2024-03-06T01:01:31;94354.41;;;5.40;100.00
15050;BME280;7622;42.724;23.250;2024-03-06T01:03:57;94351.97;;;5.28;100.00
15050;BME280;7622;42.724;23.250;2024-03-06T01:06:24;94365.78;;;5.38;100.00
15050;BME280;7622;42.724;23.250;2024-03-06T01:08:51;94367.53;;;5.37;100.00
15050;BME280;7622;42.724;23.250;2024-03-06T01:11:19;94364.50;;;5.21;100.00
15050;BME280;7622;42.724;23.250;2024-03-06T01:13:45;94363.47;;;5.24;100.00
15050;BME280;7622;42.724;23.250;2024-03-06T01:16:12;94354.81;;;5.25;100.00
15050;BME280;7622;42.724;23.250;2024-03-06T01:18:39;94356.66;;;5.23;100.00
15050;BME280;7622;42.724;23.250;2024-03-06T01:21:06;94356.44;;;5.14;100.00
15050;BME280;7622;42.724;23.250;2024-03-06T01:23:32;94359.69;;;5.28;100.00
15050;BME280;7622;42.724;23.250;2024-03-06T01:25:59;94359.50;;;5.08;100.00
15050;BME280;7622;42.724;23.250;2024-03-06T01:28:27;94350.81;;;4.98;100.00
15050;BME280;7622;42.724;23.250;2024-03-06T01:30:54;94353.41;;;5.09;100.00
15050;BME280;7622;42.724;23.250;2024-03-06T01:33:20;94349.41;;;5.05;100.00
15050;BME280;7622;42.724;23.250;2024-03-06T01:35:48;94352.94;;;5.15;100.00
15050;BME280;7622;42.724;23.250;2024-03-06T01:38:18;94357.13;;;5.28;100.00
15050;BME280;7622;42.724;23.250;2024-03-06T01:40:47;94327.56;;;5.11;100.00
15050;BME280;7622;42.724;23.250;2024-03-06T01:43:22;94353.66;;;5.18;100.00
15050;BME280;7622;42.724;23.250;2024-03-06T01:45:50;94357.25;;;5.26;100.00
15050;BME280;7622;42.724;23.250;2024-03-06T01:48:20;94364.75;;;5.29;100.00
15050;BME280;7622;42.724;23.250;2024-03-06T01:50:48;94371.63;;;5.51;100.00
15050;BME280;7622;42.724;23.250;2024-03-06T01:53:16;94368.47;;;5.36;100.00
15050;BME280;7622;42.724;23.250;2024-03-06T01:55:44;94333.53;;;5.11;100.00
15050;BME280;7622;42.724;23.250;2024-03-06T01:58:11;94368.16;;;5.07;100.00
15050;BME280;7622;42.724;23.250;2024-03-06T02:00:38;94379.59;;;4.92;100.00
15050;BME280;7622;42.724;23.250;2024-03-06T02:03:06;94363.69;;;4.98;100.00
15050;BME280;7622;42.724;23.250;2024-03-06T02:05:34;94375.84;;;4.85;100.00
15050;BME280;7622;42.724;23.250;2024-03-06T02:08:01;94371.06;;;4.69;100.00
15050;BME280;7622;42.724;23.250;2024-03-06T02:10:29;94373.19;;;4.75;100.00
15050;BME280;7622;42.724;23.250;2024-03-06T02:12:56;94381.47;;;4.68;100.00
15050;BME280;7622;42.724;23.250;2024-03-06T02:15:23;94384.94;;;4.45;100.00
15050;BME280;7622;42.724;23.250;2024-03-06T02:17:50;94380.25;;;4.39;100.00
15050;BME280;7622;42.724;23.250;2024-03-06T02:20:22;94387.28;;;4.48;100.00
15050;BME280;7622;42.724;23.250;2024-03-06T02:22:48;94388.88;;;4.38;100.00
15050;BME280;7622;42.724;23.250;2024-03-06T02:25:16;94391.50;;;4.49;100.00
15050;BME280;7622;42.724;23.250;2024-03-06T02:27:44;94390.53;;;4.39;100.00
15050;BME280;7622;42.724;23.250;2024-03-06T02:30:13;94382.47;;;4.08;100.00
15050;BME280;7622;42.724;23.250;2024-03-06T02:32:40;94391.44;;;4.26;100.00
15050;BME280;7622;42.724;23.250;2024-03-06T02:35:09;94363.72;;;4.19;100.00
15050;BME280;7622;42.724;23.250;2024-03-06T02:37:37;94387.69;;;4.30;100.00
15050;BME280;7622;42.724;23.250;2024-03-06T02:40:05;94345.38;;;3.88;100.00
15050;BME280;7622;42.724;23.250;2024-03-06T02:42:35;94393.00;;;4.05;100.00
15050;BME280;7622;42.724;23.250;2024-03-06T02:45:05;94385.03;;;4.08;100.00
15050;BME280;7622;42.724;23.250;2024-03-06T02:47:30;94387.94;;;4.27;100.00
15050;BME280;7622;42.724;23.250;2024-03-06T02:49:57;94387.78;;;4.29;100.00
15050;BME280;7622;42.724;23.250;2024-03-06T02:52:24;94380.69;;;3.97;100.00
15050;BME280;7622;42.724;23.250;2024-03-06T02:54:52;94395.09;;;4.00;100.00
15050;BME280;7622;42.724;23.250;2024-03-06T02:57:19;94398.47;;;4.01;100.00
15050;BME280;7622;42.724;23.250;2024-03-06T02:59:46;94404.91;;;4.06;100.00
15050;BME280;7622;42.724;23.250;2024-03-06T03:02:12;94401.44;;;4.18;100.00
15050;BME280;7622;42.724;23.250;2024-03-06T03:04:39;94395.41;;;4.30;100.00
15050;BME280;7622;42.724;23.250;2024-03-06T03:07:06;94195.69;;;3.05;100.00
15050;BME280;7622;42.724;23.250;2024-03-06T03:09:32;94393.34;;;4.47;100.00
15050;BME280;7622;42.724;23.250;2024-03-06T03:12:02;94396.50;;;4.39;100.00
15050;BME280;7622;42.724;23.250;2024-03-06T03:14:29;94398.50;;;4.47;100.00
15050;BME280;7622;42.724;23.250;2024-03-06T03:16:56;94402.66;;;4.36;100.00
15050;BME280;7622;42.724;23.250;2024-03-06T03:19:22;94410.56;;;4.22;100.00
15050;BME280;7622;42.724;23.250;2024-03-06T03:21:49;94405.00;;;4.28;100.00
15050;BME280;7622;42.724;23.250;2024-03-06T03:24:16;94409.38;;;4.15;100.00
15050;BME280;7622;42.724;23.250;2024-03-06T03:26:45;94413.72;;;3.91;100.00
15050;BME280;7622;42.724;23.250;2024-03-06T03:29:13;94412.34;;;3.98;100.00
15050;BME280;7622;42.724;23.250;2024-03-06T03:31:40;94416.38;;;4.13;100.00
15050;BME280;7622;42.724;23.250;2024-03-06T03:34:07;94416.69;;;4.09;100.00
15050;BME280;7622;42.724;23.250;2024-03-06T03:36:40;94406.66;;;3.82;100.00
15050;BME280;7622;42.724;23.250;2024-03-06T03:39:07;94409.84;;;3.85;100.00
15050;BME280;7622;42.724;23.250;2024-03-06T03:41:42;94401.75;;;3.79;100.00
15050;BME280;7622;42.724;23.250;2024-03-06T03:44:10;94412.88;;;3.67;100.00
15050;BME280;7622;42.724;23.250;2024-03-06T03:46:38;94413.78;;;3.78;100.00
15050;BME280;7622;42.724;23.250;2024-03-06T03:49:04;94411.59;;;3.85;100.00
15050;BME280;7622;42.724;23.250;2024-03-06T03:51:31;94418.06;;;4.02;100.00
15050;BME280;7622;42.724;23.250;2024-03-06T03:53:58;94405.19;;;3.90;100.00
15050;BME280;7622;42.724;23.250;2024-03-06T03:56:24;94429.50;;;3.97;100.00
15050;BME280;7622;42.724;23.250;2024-03-06T03:58:51;94417.94;;;3.92;100.00
15050;BME280;7622;42.724;23.250;2024-03-06T04:01:18;94422.50;;;3.76;100.00
15050;BME280;7622;42.724;23.250;2024-03-06T04:03:46;94421.56;;;3.53;100.00
15050;BME280;7622;42.724;23.250;2024-03-06T04:06:13;94423.59;;;3.61;100.00
15050;BME280;7622;42.724;23.250;2024-03-06T04:08:40;94423.97;;;3.43;100.00
15050;BME280;7622;42.724;23.250;2024-03-06T04:11:07;94437.16;;;3.63;100.00
15050;BME280;7622;42.724;23.250;2024-03-06T04:13:35;94424.19;;;3.64;100.00
15050;BME280;7622;42.724;23.250;2024-03-06T04:16:03;94422.56;;;3.63;100.00
15050;BME280;7622;42.724;23.250;2024-03-06T04:18:31;94435.16;;;3.79;100.00
15050;BME280;7622;42.724;23.250;2024-03-06T04:21:02;94404.69;;;3.62;100.00
15050;BME280;7622;42.724;23.250;2024-03-06T04:23:29;94443.81;;;3.89;100.00
15050;BME280;7622;42.724;23.250;2024-03-06T04:25:56;94438.69;;;3.89;100.00
15050;BME280;7622;42.724;23.250;2024-03-06T04:28:22;94447.22;;;3.66;100.00
15050;BME280;7622;42.724;23.250;2024-03-06T04:30:49;94454.06;;;3.78;100.00
15050;BME280;7622;42.724;23.250;2024-03-06T04:33:16;94450.28;;;3.71;100.00
15050;BME280;7622;42.724;23.250;2024-03-06T04:35:42;94462.00;;;3.62;100.00
15050;BME280;7622;42.724;23.250;2024-03-06T04:38:10;94456.97;;;3.61;100.00
15050;BME280;7622;42.724;23.250;2024-03-06T04:40:37;94463.53;;;3.65;100.00
15050;BME280;7622;42.724;23.250;2024-03-06T04:43:04;94455.78;;;3.77;100.00
15050;BME280;7622;42.724;23.250;2024-03-06T04:45:32;94459.47;;;3.86;100.00
15050;BME280;7622;42.724;23.250;2024-03-06T04:47:58;94464.38;;;3.89;100.00
15050;BME280;7622;42.724;23.250;2024-03-06T04:50:25;94465.09;;;3.91;100.00
15050;BME280;7622;42.724;23.250;2024-03-06T04:52:52;94460.44;;;3.96;100.00
15050;BME280;7622;42.724;23.250;2024-03-06T04:55:21;94462.31;;;3.94;100.00
15050;BME280;7622;42.724;23.250;2024-03-06T04:57:48;94440.00;;;3.71;100.00
15050;BME280;7622;42.724;23.250;2024-03-06T05:00:15;94465.53;;;3.85;100.00
15050;BME280;7622;42.724;23.250;2024-03-06T05:02:43;94466.47;;;3.84;100.00
15050;BME280;7622;42.724;23.250;2024-03-06T05:05:11;94468.38;;;3.93;100.00
15050;BME280;7622;42.724;23.250;2024-03-06T05:07:38;94463.28;;;4.04;100.00
15050;BME280;7622;42.724;23.250;2024-03-06T05:10:05;94454.09;;;3.89;100.00
15050;BME280;7622;42.724;23.250;2024-03-06T05:12:34;94475.03;;;3.95;100.00
15050;BME280;7622;42.724;23.250;2024-03-06T05:15:01;94480.75;;;4.12;100.00
15050;BME280;7622;42.724;23.250;2024-03-06T05:17:28;94475.53;;;4.24;100.00
15050;BME280;7622;42.724;23.250;2024-03-06T05:19:55;94476.91;;;4.76;100.00
15050;BME280;7622;42.724;23.250;2024-03-06T05:22:22;94473.22;;;5.02;100.00
15050;BME280;7622;42.724;23.250;2024-03-06T05:24:48;94484.94;;;5.29;100.00
15050;BME280;7622;42.724;23.250;2024-03-06T05:27:15;94488.44;;;5.50;100.00
15050;BME280;7622;42.724;23.250;2024-03-06T05:29:44;94475.78;;;5.69;100.00
15050;BME280;7622;42.724;23.250;2024-03-06T05:32:11;94469.94;;;5.78;100.00
15050;BME280;7622;42.724;23.250;2024-03-06T05:34:38;94471.34;;;5.93;100.00
15050;BME280;7622;42.724;23.250;2024-03-06T05:37:05;94478.81;;;5.97;100.00
15050;BME280;7622;42.724;23.250;2024-03-06T05:39:31;94474.03;;;5.92;100.00
15050;BME280;7622;42.724;23.250;2024-03-06T05:42:02;94482.09;;;5.76;100.00
15050;BME280;7622;42.724;23.250;2024-03-06T05:44:29;94484.44;;;5.68;100.00
15050;BME280;7622;42.724;23.250;2024-03-06T05:46:59;94488.44;;;5.72;100.00
15050;BME280;7622;42.724;23.250;2024-03-06T05:49:26;94343.94;;;4.99;100.00
15050;BME280;7622;42.724;23.250;2024-03-06T05:51:54;94496.75;;;5.87;100.00
15050;BME280;7622;42.724;23.250;2024-03-06T05:54:21;94498.06;;;5.59;100.00
15050;BME280;7622;42.724;23.250;2024-03-06T05:56:48;94506.00;;;5.67;100.00
15050;BME280;7622;42.724;23.250;2024-03-06T05:59:15;94509.28;;;5.58;100.00
15050;BME280;7622;42.724;23.250;2024-03-06T06:01:41;94506.25;;;5.86;100.00
15050;BME280;7622;42.724;23.250;2024-03-06T06:04:11;94501.09;;;5.64;100.00
15050;BME280;7622;42.724;23.250;2024-03-06T06:06:39;94487.50;;;5.84;100.00
15050;BME280;7622;42.724;23.250;2024-03-06T06:09:06;94513.53;;;5.92;100.00
15050;BME280;7622;42.724;23.250;2024-03-06T06:11:38;94510.13;;;5.92;100.00
15050;BME280;7622;42.724;23.250;2024-03-06T06:14:04;94508.81;;;5.98;100.00
15050;BME280;7622;42.724;23.250;2024-03-06T06:16:35;94518.75;;;6.13;100.00
15050;BME280;7622;42.724;23.250;2024-03-06T06:19:02;94508.41;;;6.36;100.00
15050;BME280;7622;42.724;23.250;2024-03-06T06:21:30;94500.84;;;6.44;100.00
15050;BME280;7622;42.724;23.250;2024-03-06T06:23:57;94503.22;;;6.67;100.00
15050;BME280;7622;42.724;23.250;2024-03-06T06:26:24;94505.50;;;6.82;100.00
15050;BME280;7622;42.724;23.250;2024-03-06T06:28:54;94509.31;;;6.78;100.00
15050;BME280;7622;42.724;23.250;2024-03-06T06:31:22;94500.66;;;6.88;100.00
15050;BME280;7622;42.724;23.250;2024-03-06T06:33:50;94505.72;;;7.31;100.00
15050;BME280;7622;42.724;23.250;2024-03-06T06:36:17;94476.38;;;7.82;100.00
15050;BME280;7622;42.724;23.250;2024-03-06T06:38:45;94496.53;;;7.78;100.00
15050;BME280;7622;42.724;23.250;2024-03-06T06:41:13;94508.47;;;7.70;100.00
15050;BME280;7622;42.724;23.250;2024-03-06T06:43:40;94505.97;;;7.59;100.00
15050;BME280;7622;42.724;23.250;2024-03-06T06:46:07;94513.16;;;7.85;100.00
15050;BME280;7622;42.724;23.250;2024-03-06T06:48:33;94511.94;;;8.29;100.00
15050;BME280;7622;42.724;23.250;2024-03-06T06:51:00;94513.50;;;8.11;100.00
15050;BME280;7622;42.724;23.250;2024-03-06T06:53:27;94504.56;;;8.25;100.00
15050;BME280;7622;42.724;23.250;2024-03-06T06:55:55;94502.72;;;8.46;100.00
15050;BME280;7622;42.724;23.250;2024-03-06T06:58:22;94515.97;;;8.91;100.00
15050;BME280;7622;42.724;23.250;2024-03-06T07:00:49;94518.00;;;8.97;100.00
15050;BME280;7622;42.724;23.250;2024-03-06T07:03:16;94517.97;;;9.26;100.00
15050;BME280;7622;42.724;23.250;2024-03-06T07:05:43;94523.84;;;9.19;100.00
15050;BME280;7622;42.724;23.250;2024-03-06T07:08:09;94516.34;;;9.06;100.00
15050;BME280;7622;42.724;23.250;2024-03-06T07:10:36;94526.84;;;9.24;100.00
15050;BME280;7622;42.724;23.250;2024-03-06T07:13:04;94519.44;;;9.29;100.00
15050;BME280;7622;42.724;23.250;2024-03-06T07:15:31;94524.63;;;10.49;100.00
15050;BME280;7622;42.724;23.250;2024-03-06T07:17:58;94520.69;;;10.18;100.00
15050;BME280;7622;42.724;23.250;2024-03-06T07:20:25;94528.41;;;10.00;100.00
15050;BME280;7622;42.724;23.250;2024-03-06T07:22:52;94501.91;;;9.97;100.00
15050;BME280;7622;42.724;23.250;2024-03-06T07:25:18;94511.28;;;9.70;100.00
15050;BME280;7622;42.724;23.250;2024-03-06T07:27:45;94458.28;;;9.82;100.00
15050;BME280;7622;42.724;23.250;2024-03-06T07:30:14;94515.91;;;10.23;100.00
15050;BME280;7622;42.724;23.250;2024-03-06T07:32:41;94515.25;;;10.39;100.00
15050;BME280;7622;42.724;23.250;2024-03-06T07:35:08;94521.53;;;10.81;100.00
15050;BME280;7622;42.724;23.250;2024-03-06T07:37:35;94519.41;;;11.20;100.00
15050;BME280;7622;42.724;23.250;2024-03-06T07:40:02;94513.56;;;11.18;100.00
15050;BME280;7622;42.724;23.250;2024-03-06T07:42:30;94515.41;;;11.08;100.00
15050;BME280;7622;42.724;23.250;2024-03-06T07:44:57;94519.41;;;11.64;100.00
15050;BME280;7622;42.724;23.250;2024-03-06T07:47:25;94527.53;;;11.87;100.00
15050;BME280;7622;42.724;23.250;2024-03-06T07:49:52;94526.38;;;11.63;100.00
15050;BME280;7622;42.724;23.250;2024-03-06T07:52:18;94529.94;;;11.80;100.00
15050;BME280;7622;42.724;23.250;2024-03-06T07:54:45;94532.03;;;12.10;100.00
15050;BME280;7622;42.724;23.250;2024-03-06T07:57:12;94524.22;;;12.10;100.00
15050;BME280;7622;42.724;23.250;2024-03-06T07:59:39;94525.16;;;12.35;100.00
15050;BME280;7622;42.724;23.250;2024-03-06T08:02:05;94520.66;;;12.11;100.00
15050;BME280;7622;42.724;23.250;2024-03-06T08:04:34;94525.22;;;12.17;100.00
15050;BME280;7622;42.724;23.250;2024-03-06T08:07:02;94523.06;;;12.47;100.00
15050;BME280;7622;42.724;23.250;2024-03-06T08:09:28;94527.81;;;12.51;98.52
15050;BME280;7622;42.724;23.250;2024-03-06T08:11:55;94530.88;;;12.47;96.08
15050;BME280;7622;42.724;23.250;2024-03-06T08:14:22;94523.38;;;12.36;98.65
15050;BME280;7622;42.724;23.250;2024-03-06T08:16:49;94524.81;;;12.96;94.43
15050;BME280;7622;42.724;23.250;2024-03-06T08:19:16;94536.63;;;13.33;84.78
15050;BME280;7622;42.724;23.250;2024-03-06T08:21:44;94537.19;;;13.84;77.73
15050;BME280;7622;42.724;23.250;2024-03-06T08:24:11;94379.44;;;13.23;74.65
15050;BME280;7622;42.724;23.250;2024-03-06T08:26:38;94507.59;;;14.54;68.28
15050;BME280;7622;42.724;23.250;2024-03-06T08:29:04;94531.81;;;13.93;71.07
15050;BME280;7622;42.724;23.250;2024-03-06T08:31:32;94533.97;;;14.45;69.13
15050;BME280;7622;42.724;23.250;2024-03-06T08:33:58;94533.19;;;14.20;70.61
15050;BME280;7622;42.724;23.250;2024-03-06T08:36:25;94527.13;;;15.43;66.12
15050;BME280;7622;42.724;23.250;2024-03-06T08:38:53;94532.03;;;15.69;62.24
15050;BME280;7622;42.724;23.250;2024-03-06T08:41:20;94528.00;;;15.58;62.02
15050;BME280;7622;42.724;23.250;2024-03-06T08:43:47;94531.38;;;15.67;61.91
15050;BME280;7622;42.724;23.250;2024-03-06T08:46:13;94530.06;;;16.00;61.31
15050;BME280;7622;42.724;23.250;2024-03-06T08:48:40;94527.84;;;15.60;60.93
15050;BME280;7622;42.724;23.250;2024-03-06T08:51:07;94529.53;;;15.90;60.18
15050;BME280;7622;42.724;23.250;2024-03-06T08:53:36;94529.72;;;16.03;60.31
15050;BME280;7622;42.724;23.250;2024-03-06T08:56:05;94520.59;;;16.14;58.88
15050;BME280;7622;42.724;23.250;2024-03-06T08:58:32;94525.88;;;15.76;59.82
15050;BME280;7622;42.724;23.250;2024-03-06T09:00:59;94478.00;;;15.68;59.51
15050;BME280;7622;42.724;23.250;2024-03-06T09:03:25;94521.78;;;15.59;61.19
15050;BME280;7622;42.724;23.250;2024-03-06T09:05:52;94529.41;;;15.98;60.37
15050;BME280;7622;42.724;23.250;2024-03-06T09:08:19;94522.75;;;16.25;59.62
15050;BME280;7622;42.724;23.250;2024-03-06T09:10:46;94530.59;;;16.69;58.07
15050;BME280;7622;42.724;23.250;2024-03-06T09:13:14;94528.88;;;16.32;58.41
15050;BME280;7622;42.724;23.250;2024-03-06T09:15:41;94533.50;;;16.15;59.08
15050;BME280;7622;42.724;23.250;2024-03-06T09:18:07;94527.63;;;16.28;59.24
15050;BME280;7622;42.724;23.250;2024-03-06T09:20:34;94519.03;;;16.05;59.49
15050;BME280;7622;42.724;23.250;2024-03-06T09:23:01;94520.41;;;16.30;59.54
15050;BME280;7622;42.724;23.250;2024-03-06T09:25:28;94529.34;;;16.80;57.89
15050;BME280;7622;42.724;23.250;2024-03-06T09:27:55;94527.47;;;17.16;56.36
15050;BME280;7622;42.724;23.250;2024-03-06T09:30:23;94528.47;;;17.37;55.87
15050;BME280;7622;42.724;23.250;2024-03-06T09:32:50;94520.31;;;17.67;55.21
15050;BME280;7622;42.724;23.250;2024-03-06T09:35:17;94521.28;;;17.88;54.46
15050;BME280;7622;42.724;23.250;2024-03-06T09:37:45;94524.22;;;18.06;54.01
15050;BME280;7622;42.724;23.250;2024-03-06T09:40:19;94522.94;;;18.58;52.40
15050;BME280;7622;42.724;23.250;2024-03-06T09:42:46;94514.97;;;18.51;52.50
15050;BME280;7622;42.724;23.250;2024-03-06T09:45:13;94509.78;;;19.25;50.89
15050;BME280;7622;42.724;23.250;2024-03-06T09:47:43;94510.41;;;19.99;49.61
15050;BME280;7622;42.724;23.250;2024-03-06T09:50:10;94508.91;;;19.05;50.87
15050;BME280;7622;42.724;23.250;2024-03-06T09:52:39;94511.50;;;18.85;50.81
15050;BME280;7622;42.724;23.250;2024-03-06T09:55:09;94509.81;;;18.71;50.50
15050;BME280;7622;42.724;23.250;2024-03-06T09:57:36;94503.59;;;18.78;49.61
15050;BME280;7622;42.724;23.250;2024-03-06T10:00:04;94506.13;;;19.33;49.41
15050;BME280;7622;42.724;23.250;2024-03-06T10:02:38;94503.16;;;19.62;48.67
15050;BME280;7622;42.724;23.250;2024-03-06T10:05:20;94495.44;;;19.54;48.29
15050;BME280;7622;42.724;23.250;2024-03-06T10:07:47;94489.97;;;19.75;47.94
15050;BME280;7622;42.724;23.250;2024-03-06T10:10:14;94494.59;;;19.99;47.60
15050;BME280;7622;42.724;23.250;2024-03-06T10:12:41;94489.31;;;20.06;47.62
15050;BME280;7622;42.724;23.250;2024-03-06T10:15:09;94487.28;;;20.08;47.20
15050;BME280;7622;42.724;23.250;2024-03-06T10:17:37;94476.53;;;20.16;46.70
15050;BME280;7622;42.724;23.250;2024-03-06T10:20:17;94477.34;;;20.10;46.56
15050;BME280;7622;42.724;23.250;2024-03-06T10:22:44;94484.66;;;20.01;45.97
15050;BME280;7622;42.724;23.250;2024-03-06T10:25:11;94479.63;;;19.60;46.23
15050;BME280;7622;42.724;23.250;2024-03-06T10:27:39;94471.44;;;19.09;47.37
15050;BME280;7622;42.724;23.250;2024-03-06T10:30:07;94469.25;;;19.19;47.71
15050;BME280;7622;42.724;23.250;2024-03-06T10:32:36;94469.25;;;19.26;47.42
15050;BME280;7622;42.724;23.250;2024-03-06T10:35:04;94467.06;;;19.56;46.40
15050;BME280;7622;42.724;23.250;2024-03-06T10:37:33;94462.94;;;18.94;48.05
15050;BME280;7622;42.724;23.250;2024-03-06T10:40:02;94458.56;;;18.60;47.87
15050;BME280;7622;42.724;23.250;2024-03-06T10:42:33;94452.50;;;17.84;48.44
15050;BME280;7622;42.724;23.250;2024-03-06T10:45:05;94454.25;;;18.05;48.73
15050;BME280;7622;42.724;23.250;2024-03-06T10:47:35;94395.03;;;17.68;48.43
15050;BME280;7622;42.724;23.250;2024-03-06T10:50:04;94452.94;;;18.70;47.44
15050;BME280;7622;42.724;23.250;2024-03-06T10:52:38;94447.88;;;18.68;47.38
15050;BME280;7622;42.724;23.250;2024-03-06T10:55:05;94450.00;;;19.12;46.90
15050;BME280;7622;42.724;23.250;2024-03-06T10:57:32;94435.41;;;19.29;45.75
15050;BME280;7622;42.724;23.250;2024-03-06T10:59:59;94435.84;;;19.53;45.48
15050;BME280;7622;42.724;23.250;2024-03-06T11:02:27;94429.34;;;19.42;45.70
15050;BME280;7622;42.724;23.250;2024-03-06T11:04:54;94432.00;;;19.49;45.58
15050;BME280;7622;42.724;23.250;2024-03-06T11:07:21;94410.50;;;19.32;45.92
15050;BME280;7622;42.724;23.250;2024-03-06T11:09:50;94376.84;;;18.88;46.74
15050;BME280;7622;42.724;23.250;2024-03-06T11:12:32;94409.66;;;19.71;45.82
15050;BME280;7622;42.724;23.250;2024-03-06T11:14:59;94415.44;;;20.26;44.16
15050;BME280;7622;42.724;23.250;2024-03-06T11:17:26;94401.59;;;19.40;44.80
15050;BME280;7622;42.724;23.250;2024-03-06T11:20:17;94407.44;;;19.15;44.92
15050;BME280;7622;42.724;23.250;2024-03-06T11:23:07;94390.84;;;19.41;43.78
15050;BME280;7622;42.724;23.250;2024-03-06T11:25:59;94388.59;;;18.92;45.12
15050;BME280;7622;42.724;23.250;2024-03-06T11:28:28;94390.22;;;19.59;44.14
15050;BME280;7622;42.724;23.250;2024-03-06T11:30:57;94371.41;;;19.49;44.17
15050;BME280;7622;42.724;23.250;2024-03-06T11:33:28;94383.66;;;19.94;43.18
15050;BME280;7622;42.724;23.250;2024-03-06T11:36:16;94382.09;;;19.80;42.82
15050;BME280;7622;42.724;23.250;2024-03-06T11:38:56;94379.66;;;19.72;42.93
15050;BME280;7622;42.724;23.250;2024-03-06T11:41:26;94381.69;;;19.77;42.91
15050;BME280;7622;42.724;23.250;2024-03-06T11:43:54;94376.59;;;19.88;42.67
15050;BME280;7622;42.724;23.250;2024-03-06T11:46:21;94382.31;;;19.39;43.55
15050;BME280;7622;42.724;23.250;2024-03-06T11:48:52;94375.88;;;19.22;43.83
15050;BME280;7622;42.724;23.250;2024-03-06T11:51:20;94367.53;;;19.45;43.72
15050;BME280;7622;42.724;23.250;2024-03-06T11:53:49;94369.56;;;18.90;44.53
15050;BME280;7622;42.724;23.250;2024-03-06T11:56:17;94360.16;;;18.48;44.73
15050;BME280;7622;42.724;23.250;2024-03-06T11:58:48;94362.47;;;18.10;45.30
15050;BME280;7622;42.724;23.250;2024-03-06T12:01:17;94360.03;;;18.63;44.52
15050;BME280;7622;42.724;23.250;2024-03-06T12:03:44;94354.56;;;18.58;44.95
15050;BME280;7622;42.724;23.250;2024-03-06T12:06:13;94352.41;;;18.27;45.65
15050;BME280;7622;42.724;23.250;2024-03-06T12:08:42;94352.06;;;18.49;45.33
15050;BME280;7622;42.724;23.250;2024-03-06T12:11:08;94349.31;;;18.71;44.50
15050;BME280;7622;42.724;23.250;2024-03-06T12:13:35;94349.09;;;18.66;44.45
15050;BME280;7622;42.724;23.250;2024-03-06T12:16:07;94347.19;;;18.40;45.16
15050;BME280;7622;42.724;23.250;2024-03-06T12:18:34;94348.66;;;18.56;44.33
15050;BME280;7622;42.724;23.250;2024-03-06T12:21:04;94340.44;;;18.04;45.08
15050;BME280;7622;42.724;23.250;2024-03-06T12:23:33;94343.06;;;18.04;44.45
15050;BME280;7622;42.724;23.250;2024-03-06T12:26:04;94343.88;;;17.70;44.65
15050;BME280;7622;42.724;23.250;2024-03-06T12:28:32;94344.19;;;17.89;44.95
15050;BME280;7622;42.724;23.250;2024-03-06T12:31:02;94349.44;;;17.20;48.16
15050;BME280;7622;42.724;23.250;2024-03-06T12:33:30;94339.22;;;15.83;55.17
15050;BME280;7622;42.724;23.250;2024-03-06T12:36:02;94344.72;;;15.73;56.16
15050;BME280;7622;42.724;23.250;2024-03-06T12:38:30;94330.63;;;15.45;57.97
15050;BME280;7622;42.724;23.250;2024-03-06T12:40:56;94323.94;;;14.98;60.36
15050;BME280;7622;42.724;23.250;2024-03-06T12:43:24;94337.91;;;14.68;64.89
15050;BME280;7622;42.724;23.250;2024-03-06T12:45:50;94327.84;;;14.42;70.18
15050;BME280;7622;42.724;23.250;2024-03-06T12:48:20;94305.69;;;14.30;71.39
15050;BME280;7622;42.724;23.250;2024-03-06T12:50:48;94338.28;;;14.65;67.65
15050;BME280;7622;42.724;23.250;2024-03-06T12:53:17;94330.38;;;14.73;66.50
15050;BME280;7622;42.724;23.250;2024-03-06T12:55:45;94338.72;;;14.91;66.29
15050;BME280;7622;42.724;23.250;2024-03-06T12:58:12;94339.09;;;14.65;68.00
15050;BME280;7622;42.724;23.250;2024-03-06T13:00:39;94328.66;;;14.42;72.29
15050;BME280;7622;42.724;23.250;2024-03-06T13:03:06;94333.56;;;14.60;71.48